• pl
  • eng

Awiacja
WIADOMOŚCI
ostatnia aktualizacja: 08.05.2017 13:35
Szanowni Państwo,

Instytut Meteorologii i Gospodarki Wodnej - Państwowy Instytut Badawczy, poszukuje kandydatów do pracy na stanowisku administracyjnym - specjalista w Centrum Meteorologicznej Osłony Lotnictwa Cywilnego - Wydziale Organizacji Meteorologicznej Osłony Lotnictwa Cywilnego w Warszawie. Szczegółowe informacje znajdują się tutaj.

Komunikaty METAR z lotnisk wojskowych. 14:01 29.06.2017

METAR EPBC 291200Z 12005KT 9999 FEW045CB 21/17 Q0994=

METAR EPCE 291200Z 09012KT 9999 SCT020 24/19
Q0993 RMK 240 075 3/3 =

METAR EPDA 291200Z 10011KT 080V140 9999 SCT032 27/19
Q0992 RMK 269 064 3/3 =

METAR EPDE 291200Z 16008KT CAVOK 24/18 Q0996 RMK 236 072 6/4=

METAR EPIR 291200Z 07020KT 6000 -SHRA SCT040 BKN100 27/19 Q0992 RMK
270 060 7/4 =

METAR EPKS 291200Z 17016KT 9999 SCT046 BKN100 27/15 Q0990 RMK 268 050
5/4=

METAR EPLK 291200Z 20016KT 9999 SCT050 SCT200 27/12 Q0993 RMK 265 040
4/3=

METAR EPLY 291200Z 19006KT CAVOK 25/18 Q0992 RMK 251 064 7/3=

METAR EPMB 291200Z 11010KT 9999 FEW034 SCT100 28/19 Q0993 RMK 278 057
3/2=

METAR EPMI 291200Z 08006KT 9999 SCT030 BKN120 26/19 Q0991 RMK 258 065
7/4=

METAR EPMM 291200Z 17006KT 9999 SCT034CB BKN070 20/19 Q0995 RMK 202
094 7/3 =

METAR EPNA 291200Z 11017KT 9999 SCT033 BKN100 27/17 Q0990 RMK 273 047
5/3=

METAR EPOK 291200Z 08009KT 060V120 CAVOK 21/19
Q0994 RMK 211 090 3/3 =

METAR EPPR 291200Z 07010KT 9999 SCT024 27/20 Q0993 RMK 268 065 4/4=

METAR EPPW 291200Z 18014G26KT 9999 FEW050 SCT100 28/15 Q0991
RMK 275 045 3/2 =

METAR EPSN 291200Z 08008KT 9999 SCT027 BKN140 26/18 Q0991 RMK 263 060
6/4 =

METAR EPTM 291200Z 16014G26KT CAVOK 28/16 Q0993 RMK 276 049 5/2=
Awiacja.imgw.pl jest pogodowym serwisem informacyjnym
Instytutu Meteorologii i Gospodarki Wodnej Państwowego Instytutu Badawczego.
Copyright IMGW PIB 2009-2011© Wszelkie prawa zastrzeżone.